createdAt,value
2019-05-30T00:03:25.694Z,4.20
2019-05-30T00:09:34.279Z,3.27
2019-05-30T00:15:40.335Z,2.87
2019-05-30T00:21:46.125Z,3.80
2019-05-30T00:27:51.945Z,6.60
2019-05-30T00:33:59.606Z,3.70
2019-05-30T00:40:06.161Z,3.13
2019-05-30T00:46:11.990Z,3.73
2019-05-30T00:52:18.310Z,2.60
2019-05-30T00:58:24.110Z,3.20
2019-05-30T01:04:30.061Z,2.67
2019-05-30T01:10:36.014Z,2.83
2019-05-30T01:16:42.839Z,2.97
2019-05-30T01:22:48.960Z,3.07
2019-05-30T01:28:54.877Z,2.87
2019-05-30T01:35:02.117Z,3.10
2019-05-30T01:41:08.493Z,7.53
2019-05-30T01:47:14.335Z,3.83
2019-05-30T01:53:20.428Z,4.37
2019-05-30T01:59:26.615Z,3.10
2019-05-30T02:05:32.619Z,2.63
2019-05-30T02:11:39.001Z,2.83
2019-05-30T02:17:45.142Z,3.00
2019-05-30T02:23:50.973Z,3.10
2019-05-30T02:29:56.839Z,3.83
2019-05-30T02:36:04.005Z,2.87
2019-05-30T02:42:11.684Z,3.53
2019-05-30T02:48:17.850Z,3.37
2019-05-30T02:54:23.910Z,4.00
2019-05-30T03:00:37.755Z,3.13
2019-05-30T03:06:44.123Z,3.33
2019-05-30T03:12:49.917Z,3.23
2019-05-30T03:18:55.696Z,3.20
2019-05-30T03:25:02.992Z,3.07
2019-05-30T03:31:21.902Z,3.03
2019-05-30T03:37:27.847Z,3.00
2019-05-30T03:43:25.713Z,2.90
2019-05-30T03:49:35.942Z,3.40
2019-05-30T03:55:44.406Z,4.10
2019-05-30T04:02:02.322Z,4.50
2019-05-30T04:08:12.371Z,3.63
2019-05-30T04:14:24.129Z,3.40
2019-05-30T04:20:30.544Z,3.17
2019-05-30T04:26:36.328Z,2.83
2019-05-30T04:32:42.599Z,2.53
2019-05-30T04:38:48.405Z,3.17
2019-05-30T04:44:54.389Z,3.23
2019-05-30T04:51:00.145Z,2.63
2019-05-30T04:57:06.221Z,3.07
2019-05-30T05:03:13.056Z,2.60
2019-05-30T05:09:20.291Z,2.70
2019-05-30T05:15:26.859Z,2.60
2019-05-30T05:21:32.823Z,2.30
2019-05-30T05:27:38.576Z,3.20
2019-05-30T05:33:56.133Z,2.60
2019-05-30T05:39:52.029Z,4.43
2019-05-30T05:45:58.152Z,2.63
2019-05-30T05:52:04.025Z,3.43
2019-05-30T05:58:09.773Z,3.07
2019-05-30T06:04:17.076Z,2.73
2019-05-30T06:10:24.281Z,3.23
2019-05-30T06:16:30.142Z,2.97
2019-05-30T06:22:36.155Z,2.90
2019-05-30T06:28:42.106Z,4.97
2019-05-30T06:34:49.099Z,3.67
2019-05-30T06:40:55.119Z,3.00
2019-05-30T06:47:01.090Z,3.00
2019-05-30T06:53:07.366Z,3.70
2019-05-30T06:59:13.175Z,3.20
2019-05-30T07:05:19.877Z,2.93
2019-05-30T07:11:26.807Z,4.07
2019-05-30T07:17:33.649Z,3.30
2019-05-30T07:23:40.042Z,3.83
2019-05-30T07:29:45.880Z,3.80
2019-05-30T07:35:53.193Z,5.00
2019-05-30T07:42:06.172Z,5.27
2019-05-30T07:48:06.602Z,4.97
2019-05-30T07:54:12.852Z,4.63
2019-05-30T08:00:27.284Z,4.67
2019-05-30T08:06:33.882Z,4.87
2019-05-30T08:12:40.014Z,3.97
2019-05-30T08:18:45.960Z,3.90
2019-05-30T08:24:51.888Z,4.40
2019-05-30T08:30:57.916Z,3.80
2019-05-30T08:37:03.775Z,3.80
2019-05-30T08:43:09.787Z,3.67
2019-05-30T08:49:17.020Z,5.60
2019-05-30T08:55:23.296Z,4.00
2019-05-30T09:01:29.251Z,3.33
2019-05-30T09:07:36.388Z,4.03
2019-05-30T09:13:42.728Z,5.73
2019-05-30T09:19:48.498Z,2.83
2019-05-30T09:25:54.929Z,2.87
2019-05-30T09:32:01.124Z,2.73
2019-05-30T09:38:07.282Z,3.20
2019-05-30T09:44:13.254Z,2.57
2019-05-30T09:50:19.674Z,2.53
2019-05-30T09:56:25.875Z,3.07
2019-05-30T10:02:31.657Z,3.10
2019-05-30T10:08:37.589Z,2.93
2019-05-30T10:14:45.179Z,2.70
2019-05-30T10:20:51.994Z,2.60
2019-05-30T10:26:58.793Z,6.00
2019-05-30T10:33:05.094Z,3.03
2019-05-30T10:39:11.012Z,5.87
2019-05-30T10:45:17.553Z,3.20
2019-05-30T10:51:23.627Z,3.20
2019-05-30T10:57:29.404Z,3.30
2019-05-30T11:03:35.235Z,3.10
2019-05-30T11:09:48.706Z,3.00
2019-05-30T11:15:55.501Z,2.23
2019-05-30T11:22:01.365Z,2.73
2019-05-30T11:28:07.951Z,2.67
2019-05-30T11:34:13.798Z,3.07
2019-05-30T11:40:21.178Z,2.50
2019-05-30T11:46:28.817Z,3.40
2019-05-30T11:52:34.854Z,3.23
2019-05-30T11:58:40.643Z,3.00
2019-05-30T12:04:46.393Z,3.60
2019-05-30T12:10:53.105Z,3.30
2019-05-30T12:16:59.500Z,3.40
2019-05-30T12:23:05.956Z,3.13
2019-05-30T12:29:11.852Z,3.73
2019-05-30T12:35:18.339Z,3.57
2019-05-30T12:41:24.733Z,3.80
2019-05-30T12:47:31.161Z,4.07
2019-05-30T12:53:37.108Z,4.47
2019-05-30T12:59:43.543Z,4.43
2019-05-30T13:05:49.419Z,5.43
2019-05-30T13:11:56.353Z,5.77
2019-05-30T13:18:03.071Z,5.37
2019-05-30T13:24:09.234Z,5.90
2019-05-30T13:30:16.516Z,6.40
2019-05-30T13:36:22.451Z,6.00
2019-05-30T13:42:28.326Z,6.20
2019-05-30T13:48:35.835Z,6.00
2019-05-30T13:54:41.662Z,6.40
2019-05-30T14:00:47.711Z,5.63
2019-05-30T14:06:53.952Z,5.83
2019-05-30T14:13:00.773Z,5.37
2019-05-30T14:19:09.801Z,5.83
2019-05-30T14:25:15.348Z,5.90
2019-05-30T14:31:21.361Z,5.07
2019-05-30T14:37:27.251Z,5.10
2019-05-30T14:43:33.429Z,6.03
2019-05-30T14:49:39.378Z,5.50
2019-05-30T14:55:46.073Z,5.40
2019-05-30T15:01:52.861Z,5.07
2019-05-30T15:07:59.251Z,4.50
2019-05-30T15:14:06.670Z,5.30
2019-05-30T15:20:15.444Z,5.50
2019-05-30T15:26:22.260Z,5.13
2019-05-30T15:32:28.192Z,7.33
2019-05-30T15:38:34.889Z,5.17
2019-05-30T15:44:40.671Z,4.83
2019-05-30T15:50:46.831Z,4.53
2019-05-30T15:56:52.722Z,4.60
2019-05-30T16:02:59.008Z,5.57
2019-05-30T16:09:07.030Z,4.70
2019-05-30T16:15:15.530Z,4.20
2019-05-30T16:21:22.455Z,5.22
2019-05-30T16:27:31.097Z,4.23
2019-05-30T16:33:36.793Z,4.07
2019-05-30T16:39:43.200Z,4.50
2019-05-30T16:45:48.971Z,5.08
2019-05-30T16:51:55.130Z,4.60
2019-05-30T16:58:01.195Z,7.85
2019-05-30T17:04:07.233Z,4.70
2019-05-30T17:10:25.673Z,4.70
2019-05-30T17:16:22.191Z,5.07
2019-05-30T17:22:30.507Z,4.53
2019-05-30T17:28:35.900Z,4.20
2019-05-30T17:34:41.925Z,4.80
2019-05-30T17:40:49.695Z,4.03
2019-05-30T17:46:55.734Z,3.50
2019-05-30T17:53:01.845Z,3.30
2019-05-30T17:59:08.005Z,3.60
2019-05-30T18:05:15.158Z,5.30
2019-05-30T18:11:20.931Z,4.40
2019-05-30T18:17:27.236Z,3.53
2019-05-30T18:23:33.491Z,4.47
2019-05-30T18:29:39.369Z,3.20
2019-05-30T18:35:45.402Z,3.23
2019-05-30T18:41:51.450Z,3.70
2019-05-30T18:47:57.232Z,3.10
2019-05-30T18:54:03.286Z,3.13
2019-05-30T19:00:13.258Z,5.27
2019-05-30T19:06:18.365Z,3.60
2019-05-30T19:12:24.330Z,3.77
2019-05-30T19:18:31.507Z,3.20
2019-05-30T19:24:37.581Z,3.02
2019-05-30T19:30:43.634Z,5.40
2019-05-30T19:36:49.547Z,3.70
2019-05-30T19:42:55.469Z,3.83
2019-05-30T19:49:01.407Z,3.20
2019-05-30T19:55:07.942Z,3.37
2019-05-30T20:01:13.729Z,4.20
2019-05-30T20:07:19.938Z,3.43
2019-05-30T20:13:26.976Z,3.83
2019-05-30T20:19:33.490Z,3.10
2019-05-30T20:25:43.666Z,3.00
2019-05-30T20:31:47.145Z,3.07
2019-05-30T20:37:53.192Z,3.17
2019-05-30T20:43:59.378Z,3.00
2019-05-30T20:50:06.288Z,4.23
2019-05-30T20:56:12.405Z,4.27
2019-05-30T21:02:18.372Z,3.53
2019-05-30T21:08:25.199Z,3.40
2019-05-30T21:14:35.494Z,3.33
2019-05-30T21:20:42.167Z,2.50
2019-05-30T21:26:48.026Z,2.40
2019-05-30T21:32:54.039Z,2.37
2019-05-30T21:39:00.299Z,2.73
2019-05-30T21:45:06.993Z,2.83
2019-05-30T21:51:13.173Z,2.77
2019-05-30T21:57:19.086Z,2.20
2019-05-30T22:03:25.381Z,2.53
2019-05-30T22:09:31.417Z,2.27
2019-05-30T22:15:37.385Z,2.87
2019-05-30T22:21:44.188Z,1.93
2019-05-30T22:27:50.537Z,2.00
2019-05-30T22:33:56.753Z,3.33
2019-05-30T22:40:02.605Z,2.07
2019-05-30T22:46:08.530Z,1.70
2019-05-30T22:52:14.321Z,2.17
2019-05-30T22:58:20.309Z,2.10
2019-05-30T23:04:26.222Z,2.20
2019-05-30T23:10:32.155Z,1.97
2019-05-30T23:16:38.175Z,3.57
2019-05-30T23:22:44.199Z,2.27
2019-05-30T23:28:50.290Z,2.20
2019-05-30T23:34:56.383Z,2.10
2019-05-30T23:41:02.729Z,2.30
2019-05-30T23:47:08.504Z,2.20
2019-05-30T23:53:14.543Z,1.87
2019-05-30T23:59:20.465Z,2.73
